Time;durP1;ratioP1;P1;durP2;ratioP2;P2;SDS_P1;SDS_P2;PMS_P1;PMS_P2;Temp;Humidity;BMP_temperature;BMP_pressure;BME280_temperature;BME280_humidity;BME280_pressure;Samples;Min_cycle;Max_cycle;Signal;HPM_P1;HPM_P2
2022/08/01 00:01:32;;;;;;;3.67;3.15;;;23.40;99.90;;;;;;5007657;28;20205;-67
2022/08/01 00:03:58;;;;;;;3.78;3.47;;;23.50;99.90;;;;;;4996247;28;20862;-67
2022/08/01 00:06:28;;;;;;;4.00;3.60;;;23.50;99.90;;;;;;5000959;28;20324;-67
2022/08/01 00:08:55;;;;;;;3.13;2.90;;;23.60;99.90;;;;;;5011858;28;20213;-67
2022/08/01 00:11:41;;;;;;;3.20;3.00;;;23.60;99.90;;;;;;5011165;28;20213;-68
2022/08/01 00:14:09;;;;;;;3.22;3.03;;;23.60;99.90;;;;;;5011408;28;20193;-67
2022/08/01 00:16:35;;;;;;;3.90;3.22;;;23.60;99.90;;;;;;5011001;28;20920;-67
2022/08/01 00:19:02;;;;;;;3.33;2.97;;;23.60;99.90;;;;;;5011573;28;20207;-67
2022/08/01 00:21:38;;;;;;;3.30;3.00;;;23.50;99.90;;;;;;5011230;28;20660;-67
2022/08/01 00:24:05;;;;;;;3.53;3.33;;;23.50;99.90;;;;;;5010618;28;20225;-68
2022/08/01 00:26:32;;;;;;;3.40;3.20;;;23.50;99.90;;;;;;5010884;28;20244;-67
2022/08/01 00:29:00;;;;;;;3.53;3.22;;;23.40;99.90;;;;;;5010918;28;20210;-67
2022/08/01 00:31:27;;;;;;;3.28;3.08;;;23.40;99.90;;;;;;5002050;28;20313;-68
2022/08/01 00:33:54;;;;;;;4.70;3.47;;;23.40;99.90;;;;;;5011236;28;20216;-67
2022/08/01 00:36:24;;;;;;;3.08;2.97;;;23.40;99.90;;;;;;5010871;28;20220;-68
2022/08/01 00:38:50;;;;;;;4.00;3.60;;;23.30;99.90;;;;;;5011109;28;20216;-68
2022/08/01 00:41:23;;;;;;;3.40;3.10;;;23.20;99.90;;;;;;5010657;28;20240;-68
2022/08/01 00:43:50;;;;;;;3.55;3.25;;;23.10;99.90;;;;;;5011162;28;20225;-68
2022/08/01 00:46:30;;;;;;;3.53;2.92;;;23.10;99.90;;;;;;5010636;28;20240;-68
2022/08/01 00:48:58;;;;;;;3.78;3.47;;;23.00;99.90;;;;;;5010721;28;20201;-67
2022/08/01 00:51:28;;;;;;;4.07;3.20;;;23.10;99.90;;;;;;5010825;28;20225;-67
2022/08/01 00:53:55;;;;;;;4.15;3.20;;;23.10;99.90;;;;;;5010355;28;20267;-67
2022/08/01 00:56:27;;;;;;;4.68;3.78;;;23.20;99.90;;;;;;5010046;28;20256;-68
2022/08/01 00:58:55;;;;;;;4.93;3.20;;;23.20;99.90;;;;;;5010491;28;20296;-68
2022/08/01 01:01:23;;;;;;;3.45;3.15;;;23.10;99.90;;;;;;5009914;28;20202;-68
2022/08/01 01:03:52;;;;;;;3.42;3.13;;;23.10;99.90;;;;;;5010342;28;20682;-68
2022/08/01 01:06:28;;;;;;;3.50;3.25;;;23.10;99.90;;;;;;5010253;28;20233;-68
2022/08/01 01:09:06;;;;;;;3.63;3.28;;;23.10;99.90;;;;;;5010453;28;20288;-67
2022/08/01 01:11:43;;;;;;;3.60;3.40;;;23.10;99.90;;;;;;5009776;28;20204;-68
2022/08/01 01:14:18;;;;;;;3.63;3.33;;;22.90;99.90;;;;;;5010096;28;20209;-68
2022/08/01 01:16:47;;;;;;;4.20;3.67;;;22.70;99.90;;;;;;5010088;28;20268;-68
2022/08/01 01:19:24;;;;;;;4.03;3.70;;;22.70;99.90;;;;;;5010446;28;20205;-67
2022/08/01 01:22:18;;;;;;;4.85;3.60;;;22.60;99.90;;;;;;5010106;28;20194;-67
2022/08/01 01:24:54;;;;;;;3.83;3.53;;;22.40;99.90;;;;;;5009954;28;20209;-67
2022/08/01 01:27:29;;;;;;;4.45;3.63;;;22.20;99.90;;;;;;5009028;28;20225;-67
2022/08/01 01:29:59;;;;;;;4.18;3.70;;;22.10;99.90;;;;;;5009650;28;20683;-67
2022/08/01 01:32:33;;;;;;;3.97;3.67;;;22.10;99.90;;;;;;5010085;28;20206;-67
2022/08/01 01:35:01;;;;;;;4.05;3.75;;;22.10;99.90;;;;;;5010227;28;20194;-68
2022/08/01 01:37:29;;;;;;;3.60;3.40;;;22.00;99.90;;;;;;5009481;28;20686;-68
2022/08/01 01:39:57;;;;;;;4.22;3.42;;;22.00;99.90;;;;;;5009704;28;20212;-67
2022/08/01 01:42:27;;;;;;;4.07;3.78;;;21.90;99.90;;;;;;5009543;28;20209;-68
2022/08/01 01:44:57;;;;;;;3.97;3.67;;;22.00;99.90;;;;;;5010073;28;20220;-67
2022/08/01 01:47:25;;;;;;;3.42;3.22;;;22.10;99.90;;;;;;5009569;28;20232;-67
2022/08/01 01:49:54;;;;;;;4.25;3.50;;;22.10;99.90;;;;;;5010350;28;20209;-67
2022/08/01 01:52:24;;;;;;;3.90;3.70;;;21.90;99.90;;;;;;5009687;28;20220;-68
2022/08/01 01:54:52;;;;;;;3.75;3.40;;;21.80;99.90;;;;;;5010031;28;20213;-67
2022/08/01 01:57:20;;;;;;;6.20;4.35;;;21.80;99.90;;;;;;4991272;28;20234;-67
2022/08/01 01:59:48;;;;;;;4.10;3.80;;;21.70;99.90;;;;;;4990332;28;20222;-68
2022/08/01 02:02:17;;;;;;;4.60;4.20;;;21.50;99.90;;;;;;4989669;28;20198;-67
2022/08/01 02:04:47;;;;;;;4.32;4.13;;;21.30;99.90;;;;;;4990166;28;20309;-68
2022/08/01 02:07:17;;;;;;;3.97;3.72;;;21.40;99.90;;;;;;4989269;28;20768;-68
2022/08/01 02:09:46;;;;;;;4.90;4.30;;;21.30;99.90;;;;;;4989914;28;20209;-68
2022/08/01 02:12:15;;;;;;;4.32;4.00;;;21.40;99.90;;;;;;4989319;28;20233;-68
2022/08/01 02:14:44;;;;;;;4.55;4.15;;;21.40;99.90;;;;;;4989598;28;20214;-68
2022/08/01 02:17:13;;;;;;;4.28;4.00;;;21.40;99.90;;;;;;4989531;28;20787;-67
2022/08/01 02:19:41;;;;;;;4.60;4.20;;;21.40;99.90;;;;;;4989507;28;20206;-68
2022/08/01 02:22:11;;;;;;;3.90;3.60;;;21.40;99.90;;;;;;4989244;28;20206;-69
2022/08/01 02:24:44;;;;;;;4.53;4.10;;;21.60;99.90;;;;;;5004054;28;20212;-67
2022/08/01 02:27:15;;;;;;;5.18;4.70;;;21.60;99.90;;;;;;5006240;28;20723;-67
2022/08/01 02:29:45;;;;;;;4.03;3.72;;;21.50;99.90;;;;;;5007551;28;20193;-67
2022/08/01 02:32:18;;;;;;;4.47;4.10;;;21.60;99.90;;;;;;5007262;28;20623;-67
2022/08/01 02:34:50;;;;;;;6.75;4.20;;;21.70;99.90;;;;;;5007247;28;20562;-67
2022/08/01 02:37:18;;;;;;;4.60;4.20;;;21.50;99.90;;;;;;5006886;28;20202;-68
2022/08/01 02:39:48;;;;;;;5.32;4.90;;;21.30;99.90;;;;;;5006831;28;20308;-68
2022/08/01 02:42:17;;;;;;;4.10;3.90;;;21.20;99.90;;;;;;5006790;28;20217;-68
2022/08/01 02:44:45;;;;;;;4.70;4.32;;;21.20;99.90;;;;;;5006663;28;20300;-68
2022/08/01 02:47:13;;;;;;;4.38;4.07;;;21.20;99.90;;;;;;5006642;28;20261;-68
2022/08/01 02:49:44;;;;;;;5.07;4.65;;;21.30;99.90;;;;;;5006895;28;20304;-68
2022/08/01 02:52:15;;;;;;;5.05;4.55;;;21.30;99.90;;;;;;5006589;28;20566;-68
2022/08/01 02:54:44;;;;;;;5.60;4.47;;;21.30;99.90;;;;;;5003924;28;20209;-68
2022/08/01 02:57:11;;;;;;;5.13;4.72;;;21.10;99.90;;;;;;5005903;28;20253;-69
2022/08/01 02:59:41;;;;;;;5.00;4.53;;;21.10;99.90;;;;;;5005885;28;20209;-68
2022/08/01 03:02:09;;;;;;;5.07;4.68;;;21.00;99.90;;;;;;4992248;28;20220;-68
2022/08/01 03:04:38;;;;;;;6.15;4.78;;;21.00;99.90;;;;;;5006578;28;20206;-68
2022/08/01 03:07:07;;;;;;;4.50;4.20;;;21.00;99.90;;;;;;5007367;28;20233;-68
2022/08/01 03:09:38;;;;;;;4.70;4.30;;;21.10;99.90;;;;;;5006962;28;20209;-68
2022/08/01 03:12:11;;;;;;;4.75;4.45;;;21.10;99.90;;;;;;5007298;28;20194;-69
2022/08/01 03:14:41;;;;;;;4.68;4.28;;;21.20;99.90;;;;;;5007786;28;20205;-68
2022/08/01 03:17:09;;;;;;;4.82;4.43;;;21.20;99.90;;;;;;5007894;28;20198;-68
2022/08/01 03:19:38;;;;;;;4.40;4.10;;;21.20;99.90;;;;;;5008405;28;20209;-68
2022/08/01 03:22:07;;;;;;;4.07;3.87;;;21.10;99.90;;;;;;5007673;28;20680;-68
2022/08/01 03:24:37;;;;;;;4.97;4.43;;;21.20;99.90;;;;;;5007697;28;20208;-68
2022/08/01 03:27:06;;;;;;;5.00;4.50;;;21.10;99.90;;;;;;5007903;28;20244;-68
2022/08/01 03:29:34;;;;;;;4.80;4.40;;;21.00;99.90;;;;;;5007863;28;20210;-68
2022/08/01 03:32:02;;;;;;;4.70;4.40;;;20.90;99.90;;;;;;5007867;28;20209;-68
2022/08/01 03:34:29;;;;;;;4.60;4.20;;;20.80;99.90;;;;;;5008102;28;20214;-68
2022/08/01 03:37:00;;;;;;;4.33;4.13;;;20.90;99.90;;;;;;5007429;28;20703;-69
2022/08/01 03:39:32;;;;;;;4.47;4.13;;;20.90;99.90;;;;;;5007792;28;20798;-69
2022/08/01 03:42:06;;;;;;;4.70;4.30;;;20.90;99.90;;;;;;5007855;28;20229;-69
2022/08/01 03:44:38;;;;;;;4.57;4.25;;;20.80;99.90;;;;;;5007609;28;20209;-68
2022/08/01 03:47:08;;;;;;;4.47;4.17;;;20.90;99.90;;;;;;5007968;28;20221;-68
2022/08/01 03:49:40;;;;;;;5.13;4.77;;;20.70;99.90;;;;;;5008366;28;20240;-68
2022/08/01 03:52:09;;;;;;;5.17;4.77;;;20.60;99.90;;;;;;5007811;28;20197;-68
2022/08/01 03:54:39;;;;;;;5.07;4.77;;;20.60;99.90;;;;;;5008092;28;20209;-69
2022/08/01 03:57:09;;;;;;;5.10;4.70;;;20.70;99.90;;;;;;5007328;28;20233;-69
2022/08/01 03:59:38;;;;;;;6.93;5.03;;;20.80;99.90;;;;;;5008071;28;20296;-69
2022/08/01 04:02:07;;;;;;;5.20;4.70;;;20.70;99.90;;;;;;5007928;28;20205;-69
2022/08/01 04:04:34;;;;;;;5.32;4.88;;;20.80;99.90;;;;;;5007685;28;20209;-69
2022/08/01 04:07:04;;;;;;;5.27;4.83;;;21.00;99.90;;;;;;5007546;28;20316;-68
2022/08/01 04:09:31;;;;;;;5.53;4.60;;;21.10;99.90;;;;;;5007746;28;20209;-69
2022/08/01 04:11:58;;;;;;;5.97;5.47;;;21.30;99.90;;;;;;5007664;28;20205;-69
2022/08/01 04:14:27;;;;;;;6.25;5.75;;;21.10;99.90;;;;;;5007452;28;20205;-69
2022/08/01 04:16:54;;;;;;;6.33;5.83;;;20.90;99.90;;;;;;5007961;28;20209;-69
2022/08/01 04:19:21;;;;;;;6.77;6.20;;;20.80;99.90;;;;;;5007763;28;20221;-69
2022/08/01 04:21:48;;;;;;;7.10;6.57;;;20.70;99.90;;;;;;5007509;28;20206;-68
2022/08/01 04:24:19;;;;;;;6.50;6.00;;;20.60;99.90;;;;;;5007610;28;20206;-68
2022/08/01 04:26:48;;;;;;;6.13;5.73;;;20.40;99.90;;;;;;5007543;28;20224;-69
2022/08/01 04:29:17;;;;;;;6.80;6.23;;;20.50;99.90;;;;;;5007129;28;20206;-68
2022/08/01 04:31:47;;;;;;;7.43;6.27;;;20.30;99.90;;;;;;5007579;28;20213;-68
2022/08/01 04:34:17;;;;;;;8.17;6.40;;;20.30;99.90;;;;;;5007417;28;20196;-68
2022/08/01 04:36:46;;;;;;;7.73;7.03;;;20.20;99.90;;;;;;5007731;28;20285;-68
2022/08/01 04:39:14;;;;;;;7.13;6.43;;;20.20;99.90;;;;;;5007394;28;20210;-69
2022/08/01 04:41:42;;;;;;;7.03;6.50;;;20.30;99.90;;;;;;5007201;28;20238;-69
2022/08/01 04:44:09;;;;;;;7.63;6.83;;;20.40;99.90;;;;;;5007172;28;20215;-68
2022/08/01 04:46:37;;;;;;;6.83;6.17;;;20.40;99.90;;;;;;5007487;28;20230;-68
2022/08/01 04:49:06;;;;;;;6.77;6.27;;;20.40;99.90;;;;;;5008938;28;20283;-68
2022/08/01 04:51:34;;;;;;;7.03;6.53;;;20.40;99.90;;;;;;5010481;28;20205;-69
2022/08/01 04:54:00;;;;;;;7.03;6.53;;;20.30;99.90;;;;;;5010801;28;20267;-68
2022/08/01 04:56:27;;;;;;;6.67;6.03;;;20.30;99.90;;;;;;5010119;28;20273;-69
2022/08/01 05:01:36;;;;;;;7.67;7.07;;;20.30;99.90;;;;;;5005399;28;20217;-68
2022/08/01 05:04:03;;;;;;;7.47;6.83;;;20.40;99.90;;;;;;5008212;28;20692;-69
2022/08/01 05:06:31;;;;;;;6.27;5.77;;;20.30;99.90;;;;;;5010443;28;20213;-69
2022/08/01 05:08:58;;;;;;;7.50;6.90;;;20.40;99.90;;;;;;5010492;28;20212;-68
2022/08/01 05:11:24;;;;;;;7.30;6.70;;;20.50;99.90;;;;;;5010347;28;20231;-69
2022/08/01 05:13:52;;;;;;;7.00;6.47;;;20.60;99.90;;;;;;5010610;28;20208;-68
2022/08/01 05:16:25;;;;;;;7.13;6.53;;;20.60;99.90;;;;;;5010474;28;20428;-68
2022/08/01 05:18:51;;;;;;;6.23;5.73;;;20.70;99.90;;;;;;5010262;28;20919;-69
2022/08/01 05:21:26;;;;;;;6.60;6.20;;;20.70;99.90;;;;;;5010288;28;20616;-68
2022/08/01 05:23:54;;;;;;;6.70;6.30;;;20.80;99.90;;;;;;5009998;28;20561;-68
2022/08/01 05:26:24;;;;;;;7.60;6.97;;;20.70;99.90;;;;;;5009943;28;20202;-69
2022/08/01 05:28:51;;;;;;;6.17;5.67;;;20.60;99.90;;;;;;5010113;28;20209;-68
2022/08/01 05:31:26;;;;;;;7.50;6.90;;;20.70;99.90;;;;;;5009900;28;20672;-68
2022/08/01 05:33:53;;;;;;;6.70;6.20;;;20.70;99.90;;;;;;5010066;28;20198;-68
2022/08/01 05:36:28;;;;;;;7.17;6.53;;;20.70;99.90;;;;;;5009802;28;20209;-68
2022/08/01 05:38:56;;;;;;;7.93;7.33;;;20.80;99.90;;;;;;5010103;28;20205;-68
2022/08/01 05:41:23;;;;;;;7.03;6.53;;;20.80;99.90;;;;;;5009556;28;20236;-68
2022/08/01 05:43:50;;;;;;;7.63;7.10;;;20.80;99.90;;;;;;5010029;28;20205;-68
2022/08/01 05:46:26;;;;;;;7.40;6.90;;;20.80;99.90;;;;;;5009786;28;20209;-68
2022/08/01 05:48:53;;;;;;;8.30;7.50;;;20.90;99.90;;;;;;5009599;28;20237;-68
2022/08/01 05:51:23;;;;;;;7.80;7.20;;;20.80;99.90;;;;;;5009417;28;20766;-68
2022/08/01 05:53:50;;;;;;;8.33;7.63;;;20.80;99.90;;;;;;5009703;28;20236;-68
2022/08/01 05:56:29;;;;;;;9.03;8.23;;;20.80;99.90;;;;;;5008940;28;20241;-69
2022/08/01 05:58:56;;;;;;;7.53;6.90;;;20.70;99.90;;;;;;5009597;28;20229;-68
2022/08/01 06:01:23;;;;;;;7.10;6.40;;;20.60;99.90;;;;;;5009377;28;20253;-68
2022/08/01 06:03:50;;;;;;;7.17;6.67;;;20.60;99.90;;;;;;5009547;28;20217;-68
2022/08/01 06:06:20;;;;;;;6.77;6.30;;;20.70;99.90;;;;;;5009191;28;20206;-68
2022/08/01 06:08:46;;;;;;;6.83;6.20;;;20.60;99.90;;;;;;5009017;28;20229;-68
2022/08/01 06:11:22;;;;;;;6.27;5.80;;;20.60;99.90;;;;;;5008756;28;20209;-69
2022/08/01 06:13:51;;;;;;;6.50;6.00;;;20.50;99.90;;;;;;5009103;28;20721;-68
2022/08/01 06:16:27;;;;;;;5.40;5.07;;;20.30;99.90;;;;;;5009066;28;20696;-68
2022/08/01 06:18:53;;;;;;;5.30;5.00;;;20.40;99.90;;;;;;5009139;28;20205;-68
2022/08/01 06:21:26;;;;;;;5.37;5.03;;;20.50;99.90;;;;;;5008939;28;20216;-68
2022/08/01 06:23:53;;;;;;;5.43;5.10;;;20.60;99.90;;;;;;5009070;28;20308;-68
2022/08/01 06:26:26;;;;;;;5.73;5.23;;;20.70;99.90;;;;;;5008513;28;20680;-69
2022/08/01 06:28:54;;;;;;;5.07;4.53;;;20.70;99.90;;;;;;5008730;28;20882;-68
2022/08/01 06:31:24;;;;;;;4.93;4.53;;;20.70;99.90;;;;;;5008961;28;20247;-68
2022/08/01 06:33:51;;;;;;;4.60;4.20;;;20.70;99.90;;;;;;5008647;28;20319;-68
2022/08/01 06:36:25;;;;;;;4.30;4.10;;;20.70;99.90;;;;;;5008409;28;20678;-68
2022/08/01 06:38:54;;;;;;;4.20;3.73;;;20.70;99.90;;;;;;5008559;28;20209;-68
2022/08/01 06:41:21;;;;;;;4.27;4.03;;;20.80;99.90;;;;;;5008419;28;20412;-68
2022/08/01 06:43:47;;;;;;;4.13;3.90;;;20.80;99.90;;;;;;5008706;28;20209;-68
2022/08/01 06:46:37;;;;;;;3.40;3.13;;;20.80;99.90;;;;;;5008584;28;20216;-68
2022/08/01 06:49:04;;;;;;;3.53;3.33;;;20.80;99.90;;;;;;5008143;28;20704;-68
2022/08/01 06:51:39;;;;;;;4.00;3.70;;;20.90;99.90;;;;;;5008421;28;20217;-68
2022/08/01 06:54:06;;;;;;;3.50;3.33;;;20.90;99.90;;;;;;5008430;28;20212;-68
2022/08/01 06:56:34;;;;;;;3.57;3.27;;;21.00;99.90;;;;;;5007932;28;20245;-68
2022/08/01 06:59:01;;;;;;;3.90;3.60;;;21.00;99.90;;;;;;5008604;28;20307;-69
2022/08/01 07:01:34;;;;;;;3.63;3.43;;;21.00;99.90;;;;;;5008597;28;20205;-69
2022/08/01 07:04:03;;;;;;;3.87;3.57;;;20.90;99.90;;;;;;5008244;28;20205;-68
2022/08/01 07:06:34;;;;;;;3.47;3.23;;;20.90;99.90;;;;;;5008364;28;20292;-69
2022/08/01 07:09:01;;;;;;;3.60;3.40;;;21.00;99.90;;;;;;5008416;28;20237;-69
2022/08/01 07:11:28;;;;;;;4.10;3.85;;;21.10;99.90;;;;;;5007506;28;20201;-68
2022/08/01 07:13:56;;;;;;;4.13;3.93;;;21.20;99.90;;;;;;5008309;28;20240;-68
2022/08/01 07:16:26;;;;;;;4.15;3.75;;;21.30;99.90;;;;;;5007895;28;20212;-68
2022/08/01 07:18:53;;;;;;;3.90;3.60;;;21.30;99.90;;;;;;5008425;28;20292;-68
2022/08/01 07:21:24;;;;;;;3.70;3.50;;;21.30;99.90;;;;;;5007905;28;20214;-68
2022/08/01 07:23:50;;;;;;;3.57;3.37;;;21.40;99.90;;;;;;5008114;28;20223;-68
2022/08/01 07:26:23;;;;;;;3.87;3.40;;;21.50;99.90;;;;;;5007842;28;20205;-68
2022/08/01 07:28:50;;;;;;;3.80;3.60;;;21.50;99.90;;;;;;5007699;28;20712;-68
2022/08/01 07:31:17;;;;;;;4.33;3.97;;;21.60;99.90;;;;;;5007708;28;20849;-68
2022/08/01 07:33:44;;;;;;;4.40;4.10;;;21.60;99.90;;;;;;5008032;28;20568;-68
2022/08/01 07:36:26;;;;;;;4.77;4.33;;;21.70;99.90;;;;;;5008072;28;20216;-69
2022/08/01 07:38:53;;;;;;;5.35;5.05;;;21.60;99.90;;;;;;5007879;28;20666;-68
2022/08/01 07:41:25;;;;;;;5.50;4.93;;;21.50;99.90;;;;;;5007561;28;20573;-68
2022/08/01 07:43:52;;;;;;;5.88;5.43;;;21.50;99.90;;;;;;5008035;28;20620;-68
2022/08/01 07:46:22;;;;;;;5.70;5.30;;;21.60;99.90;;;;;;5008377;28;20210;-68
2022/08/01 07:48:49;;;;;;;5.20;4.80;;;21.50;99.90;;;;;;5008047;28;20225;-69
2022/08/01 07:51:26;;;;;;;5.13;4.73;;;21.30;99.90;;;;;;5007527;28;20215;-69
2022/08/01 07:53:53;;;;;;;5.33;4.93;;;21.20;99.90;;;;;;5007889;28;20674;-68
2022/08/01 07:56:26;;;;;;;5.00;4.60;;;21.10;99.90;;;;;;5007224;28;20805;-68
2022/08/01 07:58:53;;;;;;;5.00;4.60;;;21.10;99.90;;;;;;5007715;28;20216;-68
2022/08/01 08:01:19;;;;;;;4.10;3.80;;;21.10;99.90;;;;;;5007507;28;20573;-68
2022/08/01 08:03:46;;;;;;;4.07;3.77;;;21.10;99.90;;;;;;5007657;28;20201;-68
2022/08/01 08:06:22;;;;;;;3.43;3.23;;;21.10;99.90;;;;;;5007224;28;20691;-68
2022/08/01 08:08:50;;;;;;;3.80;3.50;;;21.20;99.90;;;;;;5007878;28;20237;-68
2022/08/01 08:11:23;;;;;;;3.30;3.00;;;21.20;99.90;;;;;;5007024;28;20213;-68
2022/08/01 08:13:50;;;;;;;3.80;3.60;;;21.40;99.90;;;;;;5007472;28;20666;-68
2022/08/01 08:16:20;;;;;;;3.50;3.28;;;21.60;99.90;;;;;;5007447;28;20296;-68
2022/08/01 08:18:47;;;;;;;2.80;2.60;;;21.90;99.90;;;;;;5007799;28;20209;-69
2022/08/01 08:21:32;;;;;;;2.75;2.65;;;22.10;99.90;;;;;;5007461;28;20212;-69
2022/08/01 08:26:44;;;;;;;2.00;1.90;;;22.40;99.90;;;;;;5010915;28;20216;-69
2022/08/01 08:29:11;;;;;;;4.00;2.22;;;22.50;99.90;;;;;;5010794;28;20240;-69
2022/08/01 08:31:38;;;;;;;2.10;2.00;;;22.60;99.90;;;;;;5011244;28;20560;-69
2022/08/01 08:34:05;;;;;;;1.75;1.75;;;22.70;99.90;;;;;;5011422;28;20209;-68
2022/08/01 08:36:31;;;;;;;1.95;1.85;;;22.70;99.90;;;;;;5010767;28;20711;-68
2022/08/01 08:39:01;;;;;;;1.20;1.20;;;22.80;99.90;;;;;;5010671;28;20212;-68
2022/08/01 08:41:29;;;;;;;1.15;1.05;;;22.90;99.90;;;;;;5010704;28;20239;-68
2022/08/01 08:43:57;;;;;;;1.00;1.00;;;22.80;99.90;;;;;;5010773;28;20216;-68
2022/08/01 08:46:33;;;;;;;1.65;1.55;;;22.80;99.90;;;;;;5010995;28;20205;-68
2022/08/01 08:49:01;;;;;;;2.15;1.73;;;22.60;99.90;;;;;;5010577;28;20681;-68
2022/08/01 08:51:30;;;;;;;1.67;1.58;;;22.40;99.90;;;;;;5010659;28;20296;-68
2022/08/01 08:54:01;;;;;;;1.83;1.73;;;22.30;99.90;;;;;;5010808;28;20214;-68
2022/08/01 08:56:33;;;;;;;2.05;1.88;;;22.30;99.90;;;;;;5010164;28;20241;-68
2022/08/01 08:59:01;;;;;;;2.53;2.33;;;22.30;99.90;;;;;;5010842;28;20285;-68
2022/08/01 09:01:33;;;;;;;3.08;2.25;;;22.20;99.90;;;;;;5011065;28;20209;-68
2022/08/01 09:04:00;;;;;;;3.63;2.08;;;22.10;99.90;;;;;;5010790;28;20267;-68
2022/08/01 09:06:28;;;;;;;2.22;2.03;;;22.00;99.90;;;;;;5010421;28;20209;-68
2022/08/01 09:08:54;;;;;;;2.95;2.30;;;22.10;99.90;;;;;;5010485;28;20233;-68
2022/08/01 09:12:14;;;;;;;2.30;2.20;;;22.10;99.90;;;;;;5010251;28;20205;-68
2022/08/01 09:14:49;;;;;;;2.20;2.10;;;22.10;99.90;;;;;;5010659;28;20201;-68
2022/08/01 09:17:16;;;;;;;2.30;2.20;;;22.30;99.90;;;;;;5010309;28;20220;-68
2022/08/01 09:19:45;;;;;;;3.90;2.40;;;22.30;99.90;;;;;;5010409;28;20213;-69
2022/08/01 09:22:13;;;;;;;2.58;2.10;;;22.40;99.90;;;;;;5010177;28;20292;-69
2022/08/01 09:24:41;;;;;;;2.67;1.95;;;22.40;99.90;;;;;;5010395;28;20529;-69
2022/08/01 09:27:19;;;;;;;2.08;1.90;;;22.40;99.90;;;;;;5009975;28;20569;-69
2022/08/01 09:29:47;;;;;;;2.13;2.03;;;22.40;99.90;;;;;;5010205;28;20252;-69
2022/08/01 09:32:14;;;;;;;2.10;2.00;;;22.50;99.90;;;;;;5009756;28;20988;-68
2022/08/01 09:34:40;;;;;;;2.47;1.92;;;22.30;99.90;;;;;;5009751;28;20750;-68
2022/08/01 09:37:07;;;;;;;2.13;1.95;;;22.10;99.90;;;;;;5010357;28;20249;-68
2022/08/01 09:39:37;;;;;;;2.28;1.95;;;22.10;99.90;;;;;;5009939;28;20332;-69
2022/08/01 09:42:22;;;;;;;1.83;1.73;;;22.10;99.90;;;;;;5009999;28;20212;-68
2022/08/01 09:44:51;;;;;;;1.50;1.50;;;22.00;99.90;;;;;;5010080;28;20194;-68
2022/08/01 09:47:20;;;;;;;2.17;2.03;;;22.00;99.90;;;;;;5009783;28;20201;-68
2022/08/01 09:49:54;;;;;;;2.55;1.67;;;22.10;99.90;;;;;;5009748;28;20233;-68
2022/08/01 09:52:22;;;;;;;1.70;1.60;;;22.20;99.90;;;;;;5009633;28;20212;-68
2022/08/01 09:54:53;;;;;;;2.20;1.65;;;22.20;99.90;;;;;;5009970;28;20312;-68
2022/08/01 09:57:21;;;;;;;1.83;1.50;;;22.20;99.90;;;;;;5009208;28;20243;-68
2022/08/01 09:59:50;;;;;;;2.00;1.90;;;22.10;99.90;;;;;;5009781;28;20267;-69
2022/08/01 10:02:29;;;;;;;2.03;1.83;;;22.00;99.90;;;;;;5009106;28;20301;-68
2022/08/01 10:04:56;;;;;;;1.95;1.85;;;22.00;99.90;;;;;;5009270;28;20570;-68
2022/08/01 10:07:22;;;;;;;2.00;1.90;;;22.00;99.90;;;;;;5009350;28;20212;-69
2022/08/01 10:09:49;;;;;;;2.90;1.95;;;22.00;99.90;;;;;;5009206;28;20612;-69
2022/08/01 10:12:18;;;;;;;1.73;1.63;;;22.00;99.90;;;;;;5008733;28;20241;-68
2022/08/01 10:14:46;;;;;;;2.10;1.90;;;22.20;99.90;;;;;;5009486;28;20209;-68
2022/08/01 10:17:16;;;;;;;2.08;1.70;;;22.10;99.90;;;;;;5009150;28;20209;-69
2022/08/01 10:19:44;;;;;;;2.00;1.60;;;22.20;99.90;;;;;;5009076;28;20316;-69
2022/08/01 10:22:15;;;;;;;1.13;1.13;;;22.20;99.90;;;;;;5009248;28;20205;-69
2022/08/01 10:24:44;;;;;;;1.23;1.23;;;22.30;99.90;;;;;;5008688;28;20193;-68
2022/08/01 10:27:12;;;;;;;1.35;1.33;;;22.30;99.90;;;;;;5008933;28;20206;-68
2022/08/01 10:29:44;;;;;;;1.50;1.40;;;22.40;99.90;;;;;;5009071;28;20333;-68
2022/08/01 10:33:04;;;;;;;1.40;1.30;;;22.50;99.90;;;;;;5008960;28;20649;-69
2022/08/01 10:35:32;;;;;;;1.13;1.13;;;22.60;99.90;;;;;;5009013;28;20205;-68
2022/08/01 10:37:59;;;;;;;2.70;1.00;;;22.60;99.90;;;;;;5008883;28;20212;-69
2022/08/01 10:40:27;;;;;;;3.22;2.17;;;22.60;99.90;;;;;;5008230;28;20229;-68
2022/08/01 10:42:54;;;;;;;1.00;1.00;;;22.70;99.90;;;;;;5008772;28;20216;-68
2022/08/01 10:45:22;;;;;;;2.42;1.20;;;22.60;99.90;;;;;;5008580;28;20219;-68
2022/08/01 10:47:58;;;;;;;2.47;1.17;;;22.60;99.90;;;;;;5008183;28;20212;-68
2022/08/01 10:50:32;;;;;;;1.08;1.08;;;22.50;99.90;;;;;;5008468;28;20231;-68
2022/08/01 10:53:11;;;;;;;1.40;0.90;;;22.60;99.90;;;;;;5008223;28;20661;-68
2022/08/01 10:55:53;;;;;;;1.08;0.98;;;22.70;99.90;;;;;;5008489;28;20197;-68
2022/08/01 10:58:24;;;;;;;2.47;1.65;;;22.80;99.90;;;;;;5008543;28;20216;-69
2022/08/01 11:01:21;;;;;;;1.35;1.25;;;22.90;99.90;;;;;;5008421;28;20193;-68
2022/08/01 11:04:04;;;;;;;1.52;1.42;;;22.80;99.90;;;;;;5008583;28;20198;-68
2022/08/01 11:07:22;;;;;;;1.40;1.30;;;22.60;99.90;;;;;;5008307;28;20943;-68
2022/08/01 11:10:02;;;;;;;2.90;1.42;;;22.60;99.90;;;;;;5008469;28;20217;-68
2022/08/01 11:12:39;;;;;;;5.35;1.65;;;22.60;99.90;;;;;;5008028;28;20201;-69
2022/08/01 11:15:27;;;;;;;1.38;1.38;;;22.60;99.90;;;;;;5008206;28;20251;-68
2022/08/01 11:17:54;;;;;;;1.13;1.13;;;22.50;99.90;;;;;;5008430;28;20204;-69
2022/08/01 11:20:24;;;;;;;2.30;1.40;;;22.40;99.90;;;;;;5007835;28;20214;-68
2022/08/01 11:23:27;;;;;;;2.15;1.50;;;22.50;99.90;;;;;;5008130;28;20205;-69
2022/08/01 11:29:25;;;;;;;1.77;1.35;;;22.70;99.90;;;;;;4981617;28;20279;-69
2022/08/01 11:32:29;;;;;;;1.67;1.55;;;22.80;99.90;;;;;;5008123;28;20208;-69
2022/08/01 11:34:57;;;;;;;1.48;1.38;;;22.80;99.90;;;;;;5008141;28;20216;-68
2022/08/01 11:37:25;;;;;;;1.13;1.13;;;22.80;99.90;;;;;;5007786;28;20393;-69
2022/08/01 11:40:17;;;;;;;1.00;1.00;;;22.90;99.90;;;;;;5007433;28;20633;-68
2022/08/01 11:42:44;;;;;;;2.35;1.15;;;22.90;99.90;;;;;;5007886;28;20190;-68
2022/08/01 11:45:12;;;;;;;1.27;1.17;;;23.10;99.90;;;;;;5008100;28;20653;-68
2022/08/01 11:47:47;;;;;;;1.27;1.10;;;23.20;99.90;;;;;;5007961;28;20205;-68
2022/08/01 11:50:34;;;;;;;2.00;1.77;;;23.30;99.90;;;;;;5007643;28;20284;-69
2022/08/01 11:53:02;;;;;;;2.95;1.38;;;23.30;99.90;;;;;;5007630;28;20241;-68
2022/08/01 11:55:30;;;;;;;1.10;1.10;;;23.40;99.90;;;;;;5007604;28;20209;-69
2022/08/01 11:58:01;;;;;;;1.00;1.00;;;23.40;99.90;;;;;;5009086;28;20243;-68
2022/08/01 12:00:30;;;;;;;2.13;1.65;;;23.50;99.90;;;;;;5011605;28;20580;-69
2022/08/01 12:02:59;;;;;;;1.10;1.10;;;23.60;99.90;;;;;;5011969;28;20283;-69
2022/08/01 12:05:27;;;;;;;1.52;1.48;;;23.60;99.90;;;;;;5011433;28;20767;-69
2022/08/01 12:08:13;;;;;;;1.10;1.10;;;23.60;99.90;;;;;;5011797;28;20201;-69
2022/08/01 12:10:39;;;;;;;1.38;1.25;;;23.40;99.90;;;;;;5010977;28;20236;-69
2022/08/01 12:13:07;;;;;;;1.10;0.93;;;23.60;99.90;;;;;;5011361;28;20656;-68
2022/08/01 12:15:37;;;;;;;1.20;1.10;;;23.70;99.90;;;;;;5011659;28;20208;-68
2022/08/01 12:18:05;;;;;;;1.08;1.08;;;23.90;99.90;;;;;;5011775;28;20614;-69
2022/08/01 12:20:34;;;;;;;1.00;1.00;;;24.10;99.90;;;;;;5011221;28;20331;-69
2022/08/01 12:23:02;;;;;;;0.93;0.93;;;24.20;99.90;;;;;;5011464;28;20211;-68
2022/08/01 12:25:30;;;;;;;1.45;0.90;;;24.40;99.90;;;;;;5010899;28;20209;-68
2022/08/01 12:28:01;;;;;;;1.55;1.20;;;24.60;99.90;;;;;;5011309;28;20206;-69
2022/08/01 12:30:30;;;;;;;1.70;1.60;;;24.80;99.90;;;;;;5010972;28;20236;-68
2022/08/01 12:32:58;;;;;;;1.10;1.10;;;24.90;99.90;;;;;;5011224;28;20205;-69
2022/08/01 12:35:27;;;;;;;1.33;1.23;;;25.10;99.90;;;;;;5011330;28;20216;-68
2022/08/01 12:37:56;;;;;;;2.05;1.00;;;25.20;99.90;;;;;;5011094;28;20216;-69
2022/08/01 12:40:25;;;;;;;2.40;1.27;;;25.20;99.90;;;;;;5010401;28;20236;-69
2022/08/01 12:43:09;;;;;;;2.08;1.27;;;25.20;99.90;;;;;;5010846;28;20320;-69
2022/08/01 12:45:39;;;;;;;2.05;1.13;;;25.10;99.90;;;;;;5010950;28;20201;-69
2022/08/01 12:48:12;;;;;;;1.25;1.00;;;25.10;99.90;;;;;;5010727;28;20572;-69
2022/08/01 12:54:01;;;;;;;1.10;1.10;;;24.70;99.90;;;;;;5010135;28;20284;-68
2022/08/01 12:56:35;;;;;;;3.85;1.27;;;24.40;99.90;;;;;;5010127;28;20267;-68
2022/08/01 12:59:02;;;;;;;1.38;1.27;;;24.40;99.90;;;;;;5010419;28;20656;-69
2022/08/01 13:01:29;;;;;;;3.13;1.00;;;24.10;99.90;;;;;;5010759;28;20209;-68
2022/08/01 13:04:03;;;;;;;1.13;0.98;;;24.10;99.90;;;;;;5010450;28;20214;-69
2022/08/01 13:06:31;;;;;;;2.28;0.90;;;24.10;99.90;;;;;;5010665;28;20190;-68
2022/08/01 13:09:06;;;;;;;0.95;0.93;;;24.10;99.90;;;;;;5009838;28;20647;-68
2022/08/01 13:11:33;;;;;;;2.65;0.95;;;24.10;99.90;;;;;;5010208;28;20247;-68
2022/08/01 13:13:59;;;;;;;2.25;0.98;;;24.20;99.90;;;;;;5010604;28;20212;-69
2022/08/01 13:16:27;;;;;;;2.10;0.80;;;24.20;99.90;;;;;;5010333;28;20248;-69
2022/08/01 13:18:56;;;;;;;0.80;0.80;;;24.40;99.90;;;;;;5010507;28;20209;-68